< < Back
Terminal Aerodrome Forecast


Current Version              Previous Versions:   1  2  3  4  5  6  7  8  9  

Terminal Aerodrome Forecast

705
FTUS42 KILM 031100
TAFILM
TAF
KILM 031137Z 0312/0412 07008KT P6SM -RA OVC040
     FM031700 07008KT 6SM -RA OVC025
     FM032000 07008KT 5SM -RA BR OVC015
     FM032300 12005KT 3SM -RA BR OVC007
     FM040100 VRB05KT 2SM -RA BR OVC004
     FM040400 21008KT 5SM BR VCSH BKN004 BKN012 BKN100=

Latest METAR

432
SAUS70 KWBC 031200 RRI
MTRILM
METAR KILM 031153Z AUTO 05005KT 10SM -RA OVC050 05/M03 A3035 RMK AO2
RAB1058 SLP277 P0000 60000 T00501028 10067 20050 53009


USA.gov is the U.S. government's official web portal to all federal, state and local government web resources and services.